createdAt,value
2022-12-19T00:01:37.747Z,-2.50
2022-12-19T00:04:08.613Z,-2.50
2022-12-19T00:06:37.959Z,-2.40
2022-12-19T00:09:10.128Z,-2.40
2022-12-19T00:11:38.610Z,-2.40
2022-12-19T00:14:05.994Z,-2.40
2022-12-19T00:16:32.963Z,-2.50
2022-12-19T00:19:01.374Z,-2.50
2022-12-19T00:21:30.466Z,-2.50
2022-12-19T00:23:57.355Z,-2.50
2022-12-19T00:26:26.561Z,-2.40
2022-12-19T00:29:05.396Z,-2.40
2022-12-19T00:31:36.590Z,-2.40
2022-12-19T00:34:03.744Z,-2.50
2022-12-19T00:36:33.795Z,-2.40
2022-12-19T00:39:01.937Z,-2.30
2022-12-19T00:41:36.174Z,-2.40
2022-12-19T00:44:07.098Z,-2.30
2022-12-19T00:46:35.484Z,-2.40
2022-12-19T00:49:02.737Z,-2.40
2022-12-19T00:51:31.700Z,-2.40
2022-12-19T00:53:59.135Z,-2.50
2022-12-19T00:56:28.979Z,-2.40
2022-12-19T00:58:56.979Z,-2.30
2022-12-19T01:01:33.405Z,-2.20
2022-12-19T01:06:47.816Z,-2.30
2022-12-19T01:09:15.099Z,-2.20
2022-12-19T01:12:00.276Z,-2.20
2022-12-19T01:14:27.244Z,-2.30
2022-12-19T01:16:53.915Z,-2.20
2022-12-19T01:19:20.620Z,-2.20
2022-12-19T01:21:47.276Z,-2.10
2022-12-19T01:24:15.817Z,-2.20
2022-12-19T01:26:46.064Z,-2.20
2022-12-19T01:29:12.779Z,-2.20
2022-12-19T01:31:39.525Z,-2.20
2022-12-19T01:34:06.340Z,-2.20
2022-12-19T01:36:34.674Z,-2.10
2022-12-19T01:39:07.026Z,-2.20
2022-12-19T01:41:33.702Z,-2.20
2022-12-19T01:44:01.586Z,-2.20
2022-12-19T01:46:41.296Z,-2.10
2022-12-19T01:49:19.158Z,-2.20
2022-12-19T01:51:51.921Z,-2.20
2022-12-19T01:54:22.661Z,-2.10
2022-12-19T01:56:52.472Z,-2.20
2022-12-19T01:59:25.223Z,-2.20
2022-12-19T02:02:00.369Z,-2.30
2022-12-19T02:04:32.357Z,-2.20
2022-12-19T02:07:04.718Z,-2.20
2022-12-19T02:09:43.433Z,-2.20
2022-12-19T02:12:10.114Z,-2.10
2022-12-19T02:14:36.824Z,-2.00
2022-12-19T02:17:18.079Z,-2.10
2022-12-19T02:20:07.874Z,-2.20
2022-12-19T02:23:08.400Z,-2.20
2022-12-19T02:25:43.043Z,-2.20
2022-12-19T02:28:26.600Z,-2.10
2022-12-19T02:31:29.406Z,-2.10
2022-12-19T02:34:08.091Z,-2.10
2022-12-19T02:36:45.236Z,-2.20
2022-12-19T02:39:25.208Z,-2.00
2022-12-19T02:41:57.096Z,-2.10
2022-12-19T02:44:32.891Z,-2.10
2022-12-19T02:47:02.621Z,-2.10
2022-12-19T02:49:31.007Z,-2.00
2022-12-19T02:51:58.457Z,-2.00
2022-12-19T02:54:25.637Z,-2.00
2022-12-19T02:57:03.329Z,-2.00
2022-12-19T03:00:03.436Z,-1.90
2022-12-19T03:02:39.150Z,-2.00
2022-12-19T03:05:18.703Z,-2.00
2022-12-19T03:07:53.157Z,-1.90
2022-12-19T03:10:35.628Z,-2.00
2022-12-19T03:13:20.634Z,-2.00
2022-12-19T03:15:48.253Z,-2.00
2022-12-19T03:18:15.408Z,-2.00
2022-12-19T03:21:09.977Z,-1.90
2022-12-19T03:23:37.715Z,-1.90
2022-12-19T03:26:17.800Z,-1.80
2022-12-19T03:29:03.305Z,-1.90
2022-12-19T03:31:32.262Z,-1.90
2022-12-19T03:34:03.201Z,-1.90
2022-12-19T03:36:44.031Z,-1.90
2022-12-19T03:39:12.754Z,-1.90
2022-12-19T03:41:59.326Z,-1.80
2022-12-19T03:44:30.106Z,-1.70
2022-12-19T03:47:29.111Z,-1.70
2022-12-19T03:49:55.955Z,-1.70
2022-12-19T03:52:34.412Z,-1.70
2022-12-19T03:55:26.308Z,-1.70
2022-12-19T03:57:58.116Z,-1.60
2022-12-19T04:00:26.896Z,-1.60
2022-12-19T04:02:56.375Z,-1.60
2022-12-19T04:05:26.416Z,-1.60
2022-12-19T04:08:03.824Z,-1.60
2022-12-19T04:10:32.393Z,-1.70
2022-12-19T04:13:03.122Z,-1.70
2022-12-19T04:15:39.654Z,-1.60
2022-12-19T04:18:10.420Z,-1.60
2022-12-19T04:20:41.060Z,-1.60
2022-12-19T04:23:20.948Z,-1.70
2022-12-19T04:25:51.757Z,-1.70
2022-12-19T04:28:43.643Z,-1.70
2022-12-19T04:31:13.889Z,-1.70
2022-12-19T04:33:40.722Z,-1.70
2022-12-19T04:36:07.742Z,-1.70
2022-12-19T04:38:34.613Z,-1.60
2022-12-19T04:41:01.288Z,-1.60
2022-12-19T04:43:28.180Z,-1.60
2022-12-19T04:45:57.576Z,-1.60
2022-12-19T04:48:25.468Z,-1.60
2022-12-19T04:50:52.348Z,-1.60
2022-12-19T04:53:19.299Z,-1.70
2022-12-19T04:55:46.007Z,-1.60
2022-12-19T04:58:16.310Z,-1.60
2022-12-19T05:00:45.707Z,-1.60
2022-12-19T05:03:12.465Z,-1.50
2022-12-19T05:05:39.150Z,-1.50
2022-12-19T05:08:06.056Z,-1.50
2022-12-19T05:10:32.891Z,-1.50
2022-12-19T05:12:59.593Z,-1.50
2022-12-19T05:15:26.241Z,-1.50
2022-12-19T05:17:52.962Z,-1.50
2022-12-19T05:20:19.712Z,-1.50
2022-12-19T05:22:46.445Z,-1.40
2022-12-19T05:25:13.117Z,-1.60
2022-12-19T05:27:39.981Z,-1.50
2022-12-19T05:30:07.257Z,-1.50
2022-12-19T05:32:34.811Z,-1.50
2022-12-19T05:35:01.566Z,-1.60
2022-12-19T05:37:28.235Z,-1.60
2022-12-19T05:39:55.167Z,-1.50
2022-12-19T05:42:21.835Z,-1.50
2022-12-19T05:44:48.486Z,-1.50
2022-12-19T05:47:15.154Z,-1.40
2022-12-19T05:49:41.902Z,-1.50
2022-12-19T05:52:09.139Z,-1.40
2022-12-19T05:54:35.804Z,-1.40
2022-12-19T05:57:02.511Z,-1.40
2022-12-19T05:59:29.172Z,-1.30
2022-12-19T06:01:55.956Z,-1.40
2022-12-19T06:04:22.658Z,-1.40
2022-12-19T06:06:49.306Z,-1.40
2022-12-19T06:09:16.363Z,-1.40
2022-12-19T06:11:43.085Z,-1.40
2022-12-19T06:14:09.863Z,-1.30
2022-12-19T06:16:36.545Z,-1.30
2022-12-19T06:19:03.265Z,-1.30
2022-12-19T06:21:30.142Z,-1.30
2022-12-19T06:23:56.897Z,-1.40
2022-12-19T06:26:23.614Z,-1.30
2022-12-19T06:28:52.341Z,-1.30
2022-12-19T06:31:20.653Z,-1.30
2022-12-19T06:33:47.568Z,-1.30
2022-12-19T06:36:20.233Z,-1.30
2022-12-19T06:38:47.679Z,-1.30
2022-12-19T06:41:33.785Z,-1.30
2022-12-19T06:44:01.874Z,-1.20
2022-12-19T06:46:29.049Z,-1.20
2022-12-19T06:48:55.740Z,-1.20
2022-12-19T06:51:23.181Z,-1.20
2022-12-19T06:53:50.517Z,-1.20
2022-12-19T06:56:18.188Z,-1.20
2022-12-19T06:58:44.917Z,-0.60
2022-12-19T07:01:45.980Z,-0.80
2022-12-19T07:04:17.771Z,-0.80
2022-12-19T07:06:48.887Z,-0.80
2022-12-19T07:09:16.132Z,-0.90
2022-12-19T07:11:42.796Z,-0.90
2022-12-19T07:14:10.189Z,-1.00
2022-12-19T07:16:37.960Z,-1.00
2022-12-19T07:19:05.937Z,-1.00
2022-12-19T07:21:35.974Z,-1.10
2022-12-19T07:24:03.937Z,-1.10
2022-12-19T07:26:30.729Z,-1.00
2022-12-19T07:28:58.087Z,-1.00
2022-12-19T07:31:24.774Z,-0.90
2022-12-19T07:33:51.632Z,-1.00
2022-12-19T07:36:18.321Z,-1.00
2022-12-19T07:38:45.375Z,-1.00
2022-12-19T07:41:12.026Z,-1.00
2022-12-19T07:43:38.701Z,-0.90
2022-12-19T07:46:05.555Z,-1.00
2022-12-19T07:48:32.287Z,-1.00
2022-12-19T07:50:58.941Z,-0.90
2022-12-19T07:53:25.675Z,-0.80
2022-12-19T07:55:53.048Z,-0.90
2022-12-19T07:58:19.816Z,-0.90
2022-12-19T08:00:53.168Z,-0.90
2022-12-19T08:03:19.898Z,-0.80
2022-12-19T08:05:46.632Z,-0.80
2022-12-19T08:08:13.370Z,-0.80
2022-12-19T08:10:41.646Z,-0.90
2022-12-19T08:13:09.069Z,-0.80
2022-12-19T08:15:35.777Z,-0.80
2022-12-19T08:18:03.485Z,-0.80
2022-12-19T08:20:30.397Z,-0.80
2022-12-19T08:22:57.313Z,-0.70
2022-12-19T08:25:24.161Z,-0.70
2022-12-19T08:27:50.879Z,-0.70
2022-12-19T08:30:18.865Z,-0.70
2022-12-19T08:32:45.898Z,-0.70
2022-12-19T08:35:12.850Z,-0.70
2022-12-19T08:37:39.822Z,-0.70
2022-12-19T08:40:07.441Z,-0.70
2022-12-19T08:42:34.125Z,-0.70
2022-12-19T08:45:01.100Z,-0.60
2022-12-19T08:47:27.878Z,-0.60
2022-12-19T08:49:54.785Z,-0.60
2022-12-19T08:52:21.457Z,-0.60
2022-12-19T08:54:48.340Z,-0.60
2022-12-19T08:57:15.503Z,-0.50
2022-12-19T08:59:42.260Z,-0.50
2022-12-19T09:02:10.561Z,-0.40
2022-12-19T09:05:59.735Z,-0.50
2022-12-19T09:07:24.288Z,-0.50
2022-12-19T09:09:51.013Z,-0.50
2022-12-19T09:12:17.758Z,-0.50
2022-12-19T09:14:44.563Z,-0.50
2022-12-19T09:17:11.303Z,-0.40
2022-12-19T09:19:38.314Z,-0.40
2022-12-19T09:22:05.788Z,-0.30
2022-12-19T09:24:32.529Z,-0.30
2022-12-19T09:26:59.199Z,-0.10
2022-12-19T09:29:26.576Z,-0.20
2022-12-19T09:31:56.321Z,-0.20
2022-12-19T09:34:36.753Z,-0.20
2022-12-19T09:37:15.380Z,-0.20
2022-12-19T09:39:43.283Z,-0.10
2022-12-19T09:42:13.402Z,0.00
2022-12-19T09:44:49.735Z,-0.10
2022-12-19T09:47:17.913Z,0.00
2022-12-19T09:49:47.320Z,0.00
2022-12-19T09:52:33.199Z,0.00
2022-12-19T09:55:19.080Z,0.10
2022-12-19T09:58:31.770Z,0.00
2022-12-19T10:01:02.215Z,0.10
2022-12-19T10:03:30.391Z,0.10
2022-12-19T10:07:11.504Z,0.10
2022-12-19T10:10:52.886Z,0.20
2022-12-19T10:12:38.936Z,0.20
2022-12-19T10:15:06.301Z,0.20
2022-12-19T10:18:01.316Z,0.30
2022-12-19T10:20:32.633Z,0.30
2022-12-19T10:23:20.782Z,0.30
2022-12-19T10:25:54.808Z,0.20
2022-12-19T10:28:40.040Z,0.30
2022-12-19T10:31:27.737Z,0.30
2022-12-19T10:34:01.412Z,0.30
2022-12-19T10:37:04.384Z,0.30
2022-12-19T10:39:31.737Z,0.30
2022-12-19T10:42:09.392Z,0.30
2022-12-19T10:44:40.204Z,0.30
2022-12-19T10:47:15.091Z,0.40
2022-12-19T10:49:42.114Z,0.30
2022-12-19T10:52:11.189Z,0.40
2022-12-19T10:54:37.833Z,0.40
2022-12-19T10:57:28.628Z,0.50
2022-12-19T11:00:00.353Z,0.50
2022-12-19T11:02:38.864Z,0.50
2022-12-19T11:05:21.132Z,0.50
2022-12-19T11:08:06.951Z,0.60
2022-12-19T11:11:27.688Z,0.60
2022-12-19T11:18:32.516Z,0.60
2022-12-19T11:20:49.656Z,0.70
2022-12-19T11:29:32.232Z,0.60
2022-12-19T11:30:21.344Z,0.70
2022-12-19T11:30:43.174Z,0.70
2022-12-19T11:30:45.506Z,0.70
2022-12-19T11:32:32.172Z,0.80
2022-12-19T11:34:18.361Z,0.80
2022-12-19T11:37:12.957Z,0.80
2022-12-19T11:39:42.077Z,0.80
2022-12-19T11:42:25.405Z,0.80
2022-12-19T11:45:01.594Z,0.70
2022-12-19T11:47:41.119Z,0.80
2022-12-19T11:50:34.063Z,0.90
2022-12-19T11:53:23.293Z,0.80
2022-12-19T11:56:01.645Z,0.90
2022-12-19T11:58:30.004Z,0.90
2022-12-19T12:01:14.240Z,0.90
2022-12-19T12:04:03.338Z,0.80
2022-12-19T12:06:35.423Z,0.80
2022-12-19T12:11:10.489Z,0.90
2022-12-19T12:19:16.571Z,0.90
2022-12-19T12:29:14.465Z,0.90
2022-12-19T12:31:27.997Z,0.90
2022-12-19T12:31:31.017Z,0.90
2022-12-19T12:31:45.833Z,0.90
2022-12-19T12:35:16.297Z,0.90
2022-12-19T12:35:51.344Z,1.00
2022-12-19T12:38:25.062Z,1.00
2022-12-19T12:41:04.238Z,1.10
2022-12-19T12:43:30.936Z,1.10
2022-12-19T12:45:57.673Z,1.10
2022-12-19T12:48:31.268Z,1.10
2022-12-19T12:51:00.415Z,1.10
2022-12-19T12:53:33.445Z,1.20
2022-12-19T12:56:03.250Z,1.10
2022-12-19T12:58:41.925Z,1.10
2022-12-19T13:01:28.956Z,1.10
2022-12-19T13:04:11.522Z,1.10
2022-12-19T13:07:01.983Z,1.20
2022-12-19T13:09:31.530Z,1.10
2022-12-19T13:12:39.333Z,1.20
2022-12-19T13:15:27.716Z,1.20
2022-12-19T13:17:54.366Z,1.20
2022-12-19T13:20:23.827Z,1.20
2022-12-19T13:22:58.433Z,1.20
2022-12-19T13:25:49.832Z,1.20
2022-12-19T13:28:38.132Z,1.20
2022-12-19T13:31:19.542Z,1.20
2022-12-19T13:33:56.149Z,1.20
2022-12-19T13:39:49.182Z,1.20
2022-12-19T13:40:09.121Z,1.20
2022-12-19T13:43:09.963Z,1.30
2022-12-19T13:45:41.381Z,1.30
2022-12-19T13:48:16.215Z,1.30
2022-12-19T13:50:47.750Z,1.30
2022-12-19T13:53:18.804Z,1.30
2022-12-19T13:55:46.292Z,1.30
2022-12-19T13:58:22.154Z,1.30
2022-12-19T14:01:01.194Z,1.20
2022-12-19T14:03:55.885Z,1.30
2022-12-19T14:06:31.184Z,1.30
2022-12-19T14:11:25.116Z,1.30
2022-12-19T14:13:49.239Z,1.30
2022-12-19T14:15:12.719Z,1.30
2022-12-19T14:17:40.849Z,1.30
2022-12-19T14:22:02.549Z,1.40
2022-12-19T14:23:10.877Z,1.30
2022-12-19T14:28:17.602Z,1.30
2022-12-19T14:28:54.603Z,1.30
2022-12-19T14:31:23.309Z,1.40
2022-12-19T14:34:27.086Z,1.30
2022-12-19T14:36:46.891Z,1.30
2022-12-19T14:39:22.942Z,1.30
2022-12-19T14:42:32.973Z,1.20
2022-12-19T14:54:06.893Z,1.30
2022-12-19T14:54:11.025Z,1.30
2022-12-19T14:54:12.115Z,1.30
2022-12-19T14:57:25.542Z,1.30
2022-12-19T15:01:09.021Z,1.40
2022-12-19T15:03:26.687Z,1.40
2022-12-19T15:07:06.060Z,1.30
2022-12-19T15:11:07.820Z,1.20
2022-12-19T15:14:51.164Z,1.20
2022-12-19T15:15:21.446Z,1.10
2022-12-19T15:17:51.106Z,1.10
2022-12-19T15:20:18.352Z,1.10
2022-12-19T15:22:45.202Z,1.10
2022-12-19T15:25:43.909Z,1.10
2022-12-19T15:28:32.070Z,1.10
2022-12-19T15:31:04.408Z,1.10
2022-12-19T15:33:31.116Z,1.00
2022-12-19T15:35:58.016Z,1.00
2022-12-19T15:38:24.759Z,1.00
2022-12-19T15:40:51.426Z,1.00
2022-12-19T15:44:01.068Z,1.00
2022-12-19T15:46:11.897Z,1.00
2022-12-19T15:48:43.162Z,0.90
2022-12-19T15:51:13.287Z,0.90
2022-12-19T15:53:41.532Z,0.90
2022-12-19T15:56:29.626Z,0.90
2022-12-19T15:58:58.565Z,0.90
2022-12-19T16:01:26.590Z,0.80
2022-12-19T16:03:54.182Z,0.80
2022-12-19T16:06:21.181Z,0.80
2022-12-19T16:08:47.972Z,0.90
2022-12-19T16:11:24.786Z,0.90
2022-12-19T16:13:57.500Z,0.90
2022-12-19T16:16:25.309Z,0.80
2022-12-19T16:18:52.050Z,0.70
2022-12-19T16:21:31.533Z,0.80
2022-12-19T16:24:00.540Z,0.70
2022-12-19T16:26:28.866Z,0.80
2022-12-19T16:28:55.725Z,0.70
2022-12-19T16:31:24.631Z,0.60
2022-12-19T16:33:51.888Z,0.50
2022-12-19T16:36:18.619Z,0.50
2022-12-19T16:38:45.288Z,0.50
2022-12-19T16:41:22.353Z,0.40
2022-12-19T16:43:49.869Z,0.30
2022-12-19T16:46:20.313Z,0.30
2022-12-19T16:48:48.166Z,0.30
2022-12-19T16:51:23.115Z,0.30
2022-12-19T16:53:51.508Z,0.20
2022-12-19T16:56:30.999Z,0.20
2022-12-19T16:59:01.019Z,0.20
2022-12-19T17:01:28.451Z,0.20
2022-12-19T17:03:55.402Z,0.10
2022-12-19T17:06:23.191Z,0.10
2022-12-19T17:08:49.945Z,0.20
2022-12-19T17:11:25.840Z,0.20
2022-12-19T17:14:04.396Z,0.10
2022-12-19T17:16:31.709Z,0.10
2022-12-19T17:18:59.307Z,0.10
2022-12-19T17:21:25.987Z,0.10
2022-12-19T17:23:52.892Z,0.10
2022-12-19T17:26:19.809Z,0.00
2022-12-19T17:28:49.245Z,0.00
2022-12-19T17:31:26.512Z,-0.10
2022-12-19T17:33:55.580Z,-0.10
2022-12-19T17:36:27.642Z,0.00
2022-12-19T17:38:56.738Z,0.00
2022-12-19T17:41:23.467Z,-0.10
2022-12-19T17:43:50.218Z,0.00
2022-12-19T17:46:19.526Z,-0.10
2022-12-19T17:48:50.307Z,-0.20
2022-12-19T17:51:19.089Z,-0.20
2022-12-19T17:53:46.514Z,-0.20
2022-12-19T17:56:18.046Z,-0.20
2022-12-19T17:58:44.935Z,-0.20
2022-12-19T18:01:23.258Z,-0.20
2022-12-19T18:03:52.132Z,-0.20
2022-12-19T18:06:19.067Z,-0.20
2022-12-19T18:08:45.792Z,-0.20
2022-12-19T18:11:22.515Z,-0.20
2022-12-19T18:13:49.709Z,-0.30
2022-12-19T18:16:25.669Z,-0.20
2022-12-19T18:18:52.928Z,-0.40
2022-12-19T18:21:22.307Z,-0.40
2022-12-19T18:23:49.084Z,-0.40
2022-12-19T18:26:15.824Z,-0.40
2022-12-19T18:28:42.793Z,-0.50
2022-12-19T18:31:26.335Z,-0.50
2022-12-19T18:33:54.790Z,-0.50
2022-12-19T18:36:27.532Z,-0.60
2022-12-19T18:38:55.200Z,-0.60
2022-12-19T18:41:23.321Z,-0.70
2022-12-19T18:43:50.067Z,-0.60
2022-12-19T18:46:22.383Z,-0.60
2022-12-19T18:48:49.674Z,-0.60
2022-12-19T18:51:21.149Z,-0.70
2022-12-19T18:53:49.351Z,-0.80
2022-12-19T18:56:16.288Z,-0.80
2022-12-19T18:58:43.092Z,-0.70
2022-12-19T19:01:16.698Z,-0.80
2022-12-19T19:03:57.217Z,-0.80
2022-12-19T19:06:27.531Z,-0.80
2022-12-19T19:08:57.026Z,-0.90
2022-12-19T19:11:24.926Z,-1.00
2022-12-19T19:13:52.370Z,-1.00
2022-12-19T19:16:24.861Z,-0.90
2022-12-19T19:18:56.665Z,-0.90
2022-12-19T19:21:27.041Z,-1.00
2022-12-19T19:24:07.499Z,-1.10
2022-12-19T19:26:34.350Z,-1.20
2022-12-19T19:29:01.048Z,-1.20
2022-12-19T19:31:32.253Z,-1.20
2022-12-19T19:34:27.442Z,-1.30
2022-12-19T19:36:57.249Z,-1.30
2022-12-19T19:39:24.210Z,-1.30
2022-12-19T19:41:50.950Z,-1.20
2022-12-19T19:44:17.812Z,-1.20
2022-12-19T19:46:44.861Z,-1.30
2022-12-19T19:49:12.298Z,-1.40
2022-12-19T19:51:39.340Z,-1.30
2022-12-19T19:54:06.169Z,-1.40
2022-12-19T19:56:32.960Z,-1.40
2022-12-19T19:59:00.621Z,-1.30
2022-12-19T20:01:27.843Z,-1.30
2022-12-19T20:03:54.708Z,-1.50
2022-12-19T20:06:21.621Z,-1.60
2022-12-19T20:08:49.329Z,-1.60
2022-12-19T20:11:16.137Z,-1.60
2022-12-19T20:13:42.890Z,-1.60
2022-12-19T20:16:12.367Z,-1.70
2022-12-19T20:18:40.523Z,-1.80
2022-12-19T20:21:13.650Z,-1.80
2022-12-19T20:23:42.850Z,-1.60
2022-12-19T20:26:11.508Z,-1.60
2022-12-19T20:28:43.962Z,-1.70
2022-12-19T20:31:14.913Z,-1.60
2022-12-19T20:33:41.714Z,-1.50
2022-12-19T20:36:11.145Z,-1.50
2022-12-19T20:38:38.272Z,-1.30
2022-12-19T20:41:05.271Z,-1.30
2022-12-19T20:43:32.168Z,-1.40
2022-12-19T20:46:07.885Z,-1.50
2022-12-19T20:48:34.566Z,-1.50
2022-12-19T20:51:02.509Z,-1.50
2022-12-19T20:53:29.250Z,-1.50
2022-12-19T20:55:59.091Z,-1.50
2022-12-19T20:58:26.601Z,-1.50
2022-12-19T21:01:02.409Z,-1.70
2022-12-19T21:03:30.248Z,-1.60
2022-12-19T21:05:57.853Z,-1.50
2022-12-19T21:08:26.036Z,-1.50
2022-12-19T21:10:53.652Z,-1.60
2022-12-19T21:13:21.919Z,-1.60
2022-12-19T21:15:56.757Z,-1.60
2022-12-19T21:18:24.068Z,-1.70
2022-12-19T21:20:52.842Z,-1.60
2022-12-19T21:23:19.635Z,-1.60
2022-12-19T21:25:46.312Z,-1.60
2022-12-19T21:28:13.094Z,-1.60
2022-12-19T21:30:40.004Z,-1.50
2022-12-19T21:33:06.797Z,-1.50
2022-12-19T21:35:34.697Z,-1.50
2022-12-19T21:38:02.152Z,-1.50
2022-12-19T21:40:28.869Z,-1.40
2022-12-19T21:42:55.553Z,-1.30
2022-12-19T21:45:22.245Z,-1.40
2022-12-19T21:47:48.907Z,-1.40
2022-12-19T21:50:15.737Z,-1.40
2022-12-19T21:52:42.407Z,-1.40
2022-12-19T21:55:09.763Z,-1.50
2022-12-19T21:57:42.682Z,-1.40
2022-12-19T22:00:12.001Z,-1.40
2022-12-19T22:02:41.349Z,-1.40
2022-12-19T22:05:17.413Z,-1.30
2022-12-19T22:07:44.161Z,-1.30
2022-12-19T22:10:11.133Z,-1.40
2022-12-19T22:12:37.799Z,-1.40
2022-12-19T22:15:04.743Z,-1.50
2022-12-19T22:17:31.449Z,-1.40
2022-12-19T22:19:58.194Z,-1.40
2022-12-19T22:22:25.125Z,-1.40
2022-12-19T22:24:51.822Z,-1.40
2022-12-19T22:27:18.558Z,-1.40
2022-12-19T22:29:45.392Z,-1.30
2022-12-19T22:32:12.253Z,-1.20
2022-12-19T22:34:38.983Z,-1.30
2022-12-19T22:37:05.742Z,-1.10
2022-12-19T22:39:32.472Z,-1.20
2022-12-19T22:41:59.153Z,-1.30
2022-12-19T22:44:26.030Z,-1.20
2022-12-19T22:46:52.962Z,-1.20
2022-12-19T22:49:20.035Z,-1.20
2022-12-19T22:51:46.754Z,-1.30
2022-12-19T22:54:13.621Z,-1.30
2022-12-19T22:56:41.310Z,-1.20
2022-12-19T22:59:10.479Z,-1.20
2022-12-19T23:01:40.324Z,-1.10
2022-12-19T23:04:08.579Z,-1.10
2022-12-19T23:06:37.099Z,-1.10
2022-12-19T23:09:08.515Z,-1.10
2022-12-19T23:11:37.635Z,-1.20
2022-12-19T23:14:06.354Z,-1.10
2022-12-19T23:16:33.231Z,-1.20
2022-12-19T23:18:59.986Z,-1.10
2022-12-19T23:21:27.286Z,-1.20
2022-12-19T23:23:55.416Z,-1.10
2022-12-19T23:26:28.886Z,-1.10
2022-12-19T23:29:01.542Z,-1.10
2022-12-19T23:31:29.777Z,-1.10
2022-12-19T23:33:57.578Z,-1.10
2022-12-19T23:37:00.633Z,-1.00
2022-12-19T23:39:12.187Z,-1.00
2022-12-19T23:41:39.714Z,-0.90
2022-12-19T23:44:06.585Z,-0.90
2022-12-19T23:46:33.241Z,-0.90
2022-12-19T23:49:00.002Z,-0.90
2022-12-19T23:51:27.798Z,-0.90
2022-12-19T23:53:56.048Z,-0.90
2022-12-19T23:56:28.601Z,-0.90
2022-12-19T23:58:55.459Z,-0.90
